sensor_id;sensor_type;location;lat;lon;timestamp;temperature;humidity
5346;DHT22;2695;49.444;11.054;2022-08-06T00:02:04;22.50;99.90
5346;DHT22;2695;49.444;11.054;2022-08-06T00:04:33;22.40;99.90
5346;DHT22;2695;49.444;11.054;2022-08-06T00:07:02;22.40;99.90
5346;DHT22;2695;49.444;11.054;2022-08-06T00:09:32;22.20;99.90
5346;DHT22;2695;49.444;11.054;2022-08-06T00:12:20;21.90;99.90
5346;DHT22;2695;49.444;11.054;2022-08-06T00:14:55;21.70;99.90
5346;DHT22;2695;49.444;11.054;2022-08-06T00:17:25;21.70;99.90
5346;DHT22;2695;49.444;11.054;2022-08-06T00:19:58;21.60;99.90
5346;DHT22;2695;49.444;11.054;2022-08-06T00:22:27;21.60;99.90
5346;DHT22;2695;49.444;11.054;2022-08-06T00:24:55;21.60;99.90
5346;DHT22;2695;49.444;11.054;2022-08-06T00:27:24;21.60;99.90
5346;DHT22;2695;49.444;11.054;2022-08-06T00:30:01;21.60;99.90
5346;DHT22;2695;49.444;11.054;2022-08-06T00:32:33;21.60;99.90
5346;DHT22;2695;49.444;11.054;2022-08-06T00:35:01;21.70;99.90
5346;DHT22;2695;49.444;11.054;2022-08-06T00:37:32;21.80;99.90
5346;DHT22;2695;49.444;11.054;2022-08-06T00:40:20;21.80;99.90
5346;DHT22;2695;49.444;11.054;2022-08-06T00:42:50;21.80;99.90
5346;DHT22;2695;49.444;11.054;2022-08-06T00:45:20;21.80;99.90
5346;DHT22;2695;49.444;11.054;2022-08-06T00:47:51;21.80;99.90
5346;DHT22;2695;49.444;11.054;2022-08-06T00:50:28;21.80;99.90
5346;DHT22;2695;49.444;11.054;2022-08-06T00:52:56;21.90;99.90
5346;DHT22;2695;49.444;11.054;2022-08-06T00:55:24;21.80;99.90
5346;DHT22;2695;49.444;11.054;2022-08-06T00:58:04;21.80;99.90
5346;DHT22;2695;49.444;11.054;2022-08-06T01:00:32;21.70;99.90
5346;DHT22;2695;49.444;11.054;2022-08-06T01:03:05;21.50;99.90
5346;DHT22;2695;49.444;11.054;2022-08-06T01:05:54;21.50;99.90
5346;DHT22;2695;49.444;11.054;2022-08-06T01:08:42;21.40;99.90
5346;DHT22;2695;49.444;11.054;2022-08-06T01:11:11;21.40;99.90
5346;DHT22;2695;49.444;11.054;2022-08-06T01:13:39;21.50;99.90
5346;DHT22;2695;49.444;11.054;2022-08-06T01:16:32;21.40;99.90
5346;DHT22;2695;49.444;11.054;2022-08-06T01:19:22;21.40;99.90
5346;DHT22;2695;49.444;11.054;2022-08-06T01:22:39;21.30;99.90
5346;DHT22;2695;49.444;11.054;2022-08-06T01:26:02;21.30;99.90
5346;DHT22;2695;49.444;11.054;2022-08-06T01:28:39;21.20;99.90
5346;DHT22;2695;49.444;11.054;2022-08-06T01:31:14;21.10;99.90
5346;DHT22;2695;49.444;11.054;2022-08-06T01:33:48;21.10;99.90
5346;DHT22;2695;49.444;11.054;2022-08-06T01:36:22;21.10;99.90
5346;DHT22;2695;49.444;11.054;2022-08-06T01:38:57;21.10;99.90
5346;DHT22;2695;49.444;11.054;2022-08-06T01:41:30;21.00;99.90
5346;DHT22;2695;49.444;11.054;2022-08-06T01:44:29;21.00;99.90
5346;DHT22;2695;49.444;11.054;2022-08-06T01:47:02;21.10;99.90
5346;DHT22;2695;49.444;11.054;2022-08-06T01:49:45;21.20;99.90
5346;DHT22;2695;49.444;11.054;2022-08-06T01:52:33;21.20;99.90
5346;DHT22;2695;49.444;11.054;2022-08-06T01:55:05;21.20;99.90
5346;DHT22;2695;49.444;11.054;2022-08-06T01:57:40;21.20;99.90
5346;DHT22;2695;49.444;11.054;2022-08-06T02:00:31;21.30;99.90
5346;DHT22;2695;49.444;11.054;2022-08-06T02:03:13;21.30;99.90
5346;DHT22;2695;49.444;11.054;2022-08-06T02:05:44;21.30;99.90
5346;DHT22;2695;49.444;11.054;2022-08-06T02:08:22;21.30;99.90
5346;DHT22;2695;49.444;11.054;2022-08-06T02:11:08;21.30;99.90
5346;DHT22;2695;49.444;11.054;2022-08-06T02:13:57;21.20;99.90
5346;DHT22;2695;49.444;11.054;2022-08-06T02:16:29;21.10;99.90
5346;DHT22;2695;49.444;11.054;2022-08-06T02:18:59;21.10;99.90
5346;DHT22;2695;49.444;11.054;2022-08-06T02:21:38;21.00;99.90
5346;DHT22;2695;49.444;11.054;2022-08-06T02:24:10;21.00;99.90
5346;DHT22;2695;49.444;11.054;2022-08-06T02:26:40;20.90;99.90
5346;DHT22;2695;49.444;11.054;2022-08-06T02:29:14;20.90;99.90
5346;DHT22;2695;49.444;11.054;2022-08-06T02:31:46;20.90;99.90
5346;DHT22;2695;49.444;11.054;2022-08-06T02:34:18;20.90;99.90
5346;DHT22;2695;49.444;11.054;2022-08-06T02:36:58;20.80;99.90
5346;DHT22;2695;49.444;11.054;2022-08-06T02:39:33;20.90;99.90
5346;DHT22;2695;49.444;11.054;2022-08-06T02:42:20;20.80;99.90
5346;DHT22;2695;49.444;11.054;2022-08-06T02:44:57;20.80;99.90
5346;DHT22;2695;49.444;11.054;2022-08-06T02:47:30;20.80;99.90
5346;DHT22;2695;49.444;11.054;2022-08-06T02:50:28;20.70;99.90
5346;DHT22;2695;49.444;11.054;2022-08-06T02:53:04;20.70;99.90
5346;DHT22;2695;49.444;11.054;2022-08-06T02:55:53;20.60;99.90
5346;DHT22;2695;49.444;11.054;2022-08-06T02:58:26;20.60;99.90
5346;DHT22;2695;49.444;11.054;2022-08-06T03:01:06;20.60;99.90
5346;DHT22;2695;49.444;11.054;2022-08-06T03:03:37;20.60;99.90
5346;DHT22;2695;49.444;11.054;2022-08-06T03:06:26;20.50;99.90
5346;DHT22;2695;49.444;11.054;2022-08-06T03:08:56;20.40;99.90
5346;DHT22;2695;49.444;11.054;2022-08-06T03:11:26;20.30;99.90
5346;DHT22;2695;49.444;11.054;2022-08-06T03:13:59;20.30;99.90
5346;DHT22;2695;49.444;11.054;2022-08-06T03:16:29;20.30;99.90
5346;DHT22;2695;49.444;11.054;2022-08-06T03:19:04;20.30;99.90
5346;DHT22;2695;49.444;11.054;2022-08-06T03:21:53;20.20;99.90
5346;DHT22;2695;49.444;11.054;2022-08-06T03:24:24;20.20;99.90
5346;DHT22;2695;49.444;11.054;2022-08-06T03:26:54;20.10;99.90
5346;DHT22;2695;49.444;11.054;2022-08-06T03:29:24;20.00;99.90
5346;DHT22;2695;49.444;11.054;2022-08-06T03:31:53;20.00;99.90
5346;DHT22;2695;49.444;11.054;2022-08-06T03:34:41;20.00;99.90
5346;DHT22;2695;49.444;11.054;2022-08-06T03:37:10;20.00;99.90
5346;DHT22;2695;49.444;11.054;2022-08-06T03:39:42;20.00;99.90
5346;DHT22;2695;49.444;11.054;2022-08-06T03:42:18;20.00;99.90
5346;DHT22;2695;49.444;11.054;2022-08-06T03:44:58;20.00;99.90
5346;DHT22;2695;49.444;11.054;2022-08-06T03:47:30;19.90;99.90
5346;DHT22;2695;49.444;11.054;2022-08-06T03:50:22;19.90;99.90
5346;DHT22;2695;49.444;11.054;2022-08-06T03:52:54;19.70;99.90
5346;DHT22;2695;49.444;11.054;2022-08-06T03:55:27;19.80;99.90
5346;DHT22;2695;49.444;11.054;2022-08-06T03:58:07;19.70;99.90
5346;DHT22;2695;49.444;11.054;2022-08-06T04:00:41;19.70;99.90
5346;DHT22;2695;49.444;11.054;2022-08-06T04:03:12;19.70;99.90
5346;DHT22;2695;49.444;11.054;2022-08-06T04:05:43;19.60;99.90
5346;DHT22;2695;49.444;11.054;2022-08-06T04:08:14;19.60;99.90
5346;DHT22;2695;49.444;11.054;2022-08-06T04:10:44;19.60;99.90
5346;DHT22;2695;49.444;11.054;2022-08-06T04:13:25;19.60;99.90
5346;DHT22;2695;49.444;11.054;2022-08-06T04:16:14;19.50;99.90
5346;DHT22;2695;49.444;11.054;2022-08-06T04:18:59;19.60;99.90
5346;DHT22;2695;49.444;11.054;2022-08-06T04:21:29;19.70;99.90
5346;DHT22;2695;49.444;11.054;2022-08-06T04:24:17;19.60;99.90
5346;DHT22;2695;49.444;11.054;2022-08-06T04:26:46;19.60;99.90
5346;DHT22;2695;49.444;11.054;2022-08-06T04:29:18;19.60;99.90
5346;DHT22;2695;49.444;11.054;2022-08-06T04:31:50;19.60;99.90
5346;DHT22;2695;49.444;11.054;2022-08-06T04:34:40;19.70;99.90
5346;DHT22;2695;49.444;11.054;2022-08-06T04:37:31;19.70;99.90
5346;DHT22;2695;49.444;11.054;2022-08-06T04:40:08;19.70;99.90
5346;DHT22;2695;49.444;11.054;2022-08-06T04:42:45;19.80;99.90
5346;DHT22;2695;49.444;11.054;2022-08-06T04:45:17;19.90;99.90
5346;DHT22;2695;49.444;11.054;2022-08-06T04:48:08;19.90;99.90
5346;DHT22;2695;49.444;11.054;2022-08-06T04:50:46;19.90;99.90
5346;DHT22;2695;49.444;11.054;2022-08-06T04:53:21;19.90;99.90
5346;DHT22;2695;49.444;11.054;2022-08-06T04:56:10;20.00;99.90
5346;DHT22;2695;49.444;11.054;2022-08-06T04:58:43;20.10;99.90
5346;DHT22;2695;49.444;11.054;2022-08-06T05:01:11;20.20;99.90
5346;DHT22;2695;49.444;11.054;2022-08-06T05:03:39;20.40;99.90
5346;DHT22;2695;49.444;11.054;2022-08-06T05:06:35;20.40;99.90
5346;DHT22;2695;49.444;11.054;2022-08-06T05:09:18;20.50;99.90
5346;DHT22;2695;49.444;11.054;2022-08-06T05:12:13;20.60;99.90
5346;DHT22;2695;49.444;11.054;2022-08-06T05:14:48;20.70;99.90
5346;DHT22;2695;49.444;11.054;2022-08-06T05:17:21;20.80;99.90
5346;DHT22;2695;49.444;11.054;2022-08-06T05:19:55;20.90;99.90
5346;DHT22;2695;49.444;11.054;2022-08-06T05:22:24;21.20;99.90
5346;DHT22;2695;49.444;11.054;2022-08-06T05:25:14;21.50;99.90
5346;DHT22;2695;49.444;11.054;2022-08-06T05:27:48;21.80;99.90
5346;DHT22;2695;49.444;11.054;2022-08-06T05:30:42;22.10;99.90
5346;DHT22;2695;49.444;11.054;2022-08-06T05:33:11;22.40;99.90
5346;DHT22;2695;49.444;11.054;2022-08-06T05:35:43;22.90;99.90
5346;DHT22;2695;49.444;11.054;2022-08-06T05:38:29;23.30;99.60
5346;DHT22;2695;49.444;11.054;2022-08-06T05:41:06;23.90;98.40
5346;DHT22;2695;49.444;11.054;2022-08-06T05:43:35;24.70;96.50
5346;DHT22;2695;49.444;11.054;2022-08-06T05:46:24;25.20;94.20
5346;DHT22;2695;49.444;11.054;2022-08-06T05:49:03;26.20;91.90
5346;DHT22;2695;49.444;11.054;2022-08-06T05:51:57;27.00;86.90
5346;DHT22;2695;49.444;11.054;2022-08-06T05:54:32;27.50;80.60
5346;DHT22;2695;49.444;11.054;2022-08-06T05:57:10;28.00;75.00
5346;DHT22;2695;49.444;11.054;2022-08-06T05:59:48;28.40;70.70
5346;DHT22;2695;49.444;11.054;2022-08-06T06:02:25;28.80;66.90
5346;DHT22;2695;49.444;11.054;2022-08-06T06:04:58;29.50;63.60
5346;DHT22;2695;49.444;11.054;2022-08-06T06:07:47;30.20;59.70
5346;DHT22;2695;49.444;11.054;2022-08-06T06:10:35;31.40;56.00
5346;DHT22;2695;49.444;11.054;2022-08-06T06:13:10;32.60;51.40
5346;DHT22;2695;49.444;11.054;2022-08-06T06:15:55;34.00;47.70
5346;DHT22;2695;49.444;11.054;2022-08-06T06:18:44;35.20;44.30
5346;DHT22;2695;49.444;11.054;2022-08-06T06:21:30;35.70;40.10
5346;DHT22;2695;49.444;11.054;2022-08-06T06:24:05;36.00;37.70
5346;DHT22;2695;49.444;11.054;2022-08-06T06:26:39;35.40;35.90
5346;DHT22;2695;49.444;11.054;2022-08-06T06:29:17;35.40;36.10
5346;DHT22;2695;49.444;11.054;2022-08-06T06:32:12;35.80;35.00
5346;DHT22;2695;49.444;11.054;2022-08-06T06:34:59;36.00;34.70
5346;DHT22;2695;49.444;11.054;2022-08-06T06:37:39;35.80;34.20
5346;DHT22;2695;49.444;11.054;2022-08-06T06:40:22;34.50;34.20
5346;DHT22;2695;49.444;11.054;2022-08-06T06:43:00;33.50;36.00
5346;DHT22;2695;49.444;11.054;2022-08-06T06:45:36;31.90;37.70
5346;DHT22;2695;49.444;11.054;2022-08-06T06:48:33;31.40;37.70
5346;DHT22;2695;49.444;11.054;2022-08-06T06:51:07;31.40;38.40
5346;DHT22;2695;49.444;11.054;2022-08-06T06:53:56;31.80;37.70
5346;DHT22;2695;49.444;11.054;2022-08-06T06:56:41;32.10;37.30
5346;DHT22;2695;49.444;11.054;2022-08-06T06:59:15;32.70;37.30
5346;DHT22;2695;49.444;11.054;2022-08-06T07:01:46;33.10;36.60
5346;DHT22;2695;49.444;11.054;2022-08-06T07:04:22;33.30;35.60
5346;DHT22;2695;49.444;11.054;2022-08-06T07:06:56;33.60;36.00
5346;DHT22;2695;49.444;11.054;2022-08-06T07:09:28;34.10;34.90
5346;DHT22;2695;49.444;11.054;2022-08-06T07:12:19;34.50;34.00
5346;DHT22;2695;49.444;11.054;2022-08-06T07:14:50;34.80;32.70
5346;DHT22;2695;49.444;11.054;2022-08-06T07:17:30;34.90;32.70
5346;DHT22;2695;49.444;11.054;2022-08-06T07:20:21;34.90;32.90
5346;DHT22;2695;49.444;11.054;2022-08-06T07:22:54;34.60;31.80
5346;DHT22;2695;49.444;11.054;2022-08-06T07:25:45;34.50;33.10
5346;DHT22;2695;49.444;11.054;2022-08-06T07:28:22;34.80;32.30
5346;DHT22;2695;49.444;11.054;2022-08-06T07:30:56;35.30;31.90
5346;DHT22;2695;49.444;11.054;2022-08-06T07:33:39;36.20;30.60
5346;DHT22;2695;49.444;11.054;2022-08-06T07:36:28;36.40;30.60
5346;DHT22;2695;49.444;11.054;2022-08-06T07:39:07;36.90;29.80
5346;DHT22;2695;49.444;11.054;2022-08-06T07:41:42;37.60;29.10
5346;DHT22;2695;49.444;11.054;2022-08-06T07:44:33;38.10;28.20
5346;DHT22;2695;49.444;11.054;2022-08-06T07:47:25;37.70;27.90
5346;DHT22;2695;49.444;11.054;2022-08-06T07:50:16;36.80;28.80
5346;DHT22;2695;49.444;11.054;2022-08-06T07:52:50;36.40;28.40
5346;DHT22;2695;49.444;11.054;2022-08-06T07:55:21;36.30;28.30
5346;DHT22;2695;49.444;11.054;2022-08-06T07:58:04;36.60;28.30
5346;DHT22;2695;49.444;11.054;2022-08-06T08:00:34;36.60;27.80
5346;DHT22;2695;49.444;11.054;2022-08-06T08:03:05;36.40;28.20
5346;DHT22;2695;49.444;11.054;2022-08-06T08:06:13;36.50;28.00
5346;DHT22;2695;49.444;11.054;2022-08-06T08:08:54;35.70;28.30
5346;DHT22;2695;49.444;11.054;2022-08-06T08:11:24;35.10;28.80
5346;DHT22;2695;49.444;11.054;2022-08-06T08:14:14;34.90;29.50
5346;DHT22;2695;49.444;11.054;2022-08-06T08:16:45;35.50;28.90
5346;DHT22;2695;49.444;11.054;2022-08-06T08:19:25;35.50;29.20
5346;DHT22;2695;49.444;11.054;2022-08-06T08:22:06;35.90;28.90
5346;DHT22;2695;49.444;11.054;2022-08-06T08:24:40;36.30;28.50
5346;DHT22;2695;49.444;11.054;2022-08-06T08:27:20;36.70;27.80
5346;DHT22;2695;49.444;11.054;2022-08-06T08:29:51;36.10;27.90
5346;DHT22;2695;49.444;11.054;2022-08-06T08:32:25;35.50;28.20
5346;DHT22;2695;49.444;11.054;2022-08-06T08:34:53;35.60;28.30
5346;DHT22;2695;49.444;11.054;2022-08-06T08:37:24;35.40;28.60
5346;DHT22;2695;49.444;11.054;2022-08-06T08:39:58;35.70;28.50
5346;DHT22;2695;49.444;11.054;2022-08-06T08:42:28;36.00;28.20
5346;DHT22;2695;49.444;11.054;2022-08-06T08:45:05;36.20;28.10
5346;DHT22;2695;49.444;11.054;2022-08-06T08:47:44;35.90;28.60
5346;DHT22;2695;49.444;11.054;2022-08-06T08:50:28;36.70;28.50
5346;DHT22;2695;49.444;11.054;2022-08-06T08:53:00;37.80;27.50
5346;DHT22;2695;49.444;11.054;2022-08-06T08:55:31;38.50;26.50
5346;DHT22;2695;49.444;11.054;2022-08-06T08:58:19;38.10;26.20
5346;DHT22;2695;49.444;11.054;2022-08-06T09:01:08;36.90;27.10
5346;DHT22;2695;49.444;11.054;2022-08-06T09:03:56;36.40;27.60
5346;DHT22;2695;49.444;11.054;2022-08-06T09:06:28;36.80;27.80
5346;DHT22;2695;49.444;11.054;2022-08-06T09:09:05;37.20;27.30
5346;DHT22;2695;49.444;11.054;2022-08-06T09:11:42;37.50;27.00
5346;DHT22;2695;49.444;11.054;2022-08-06T09:14:30;37.60;27.00
5346;DHT22;2695;49.444;11.054;2022-08-06T09:17:00;38.20;26.60
5346;DHT22;2695;49.444;11.054;2022-08-06T09:19:29;38.60;26.30
5346;DHT22;2695;49.444;11.054;2022-08-06T09:22:07;38.70;26.20
5346;DHT22;2695;49.444;11.054;2022-08-06T09:24:37;38.80;25.80
5346;DHT22;2695;49.444;11.054;2022-08-06T09:27:07;38.60;26.00
5346;DHT22;2695;49.444;11.054;2022-08-06T09:29:56;38.70;26.00
5346;DHT22;2695;49.444;11.054;2022-08-06T09:32:46;39.10;25.80
5346;DHT22;2695;49.444;11.054;2022-08-06T09:35:23;39.20;25.20
5346;DHT22;2695;49.444;11.054;2022-08-06T09:38:12;38.80;25.40
5346;DHT22;2695;49.444;11.054;2022-08-06T09:41:02;38.80;25.60
5346;DHT22;2695;49.444;11.054;2022-08-06T09:43:33;38.40;25.80
5346;DHT22;2695;49.444;11.054;2022-08-06T09:46:35;37.80;26.50
5346;DHT22;2695;49.444;11.054;2022-08-06T09:49:04;37.80;26.50
5346;DHT22;2695;49.444;11.054;2022-08-06T09:52:10;37.50;26.10
5346;DHT22;2695;49.444;11.054;2022-08-06T09:54:39;37.70;26.40
5346;DHT22;2695;49.444;11.054;2022-08-06T09:57:09;37.50;26.00
5346;DHT22;2695;49.444;11.054;2022-08-06T09:59:45;36.80;26.60
5346;DHT22;2695;49.444;11.054;2022-08-06T10:02:17;37.00;27.10
5346;DHT22;2695;49.444;11.054;2022-08-06T10:05:06;37.80;26.80
5346;DHT22;2695;49.444;11.054;2022-08-06T10:07:46;38.90;26.20
5346;DHT22;2695;49.444;11.054;2022-08-06T10:10:19;39.60;25.00
5346;DHT22;2695;49.444;11.054;2022-08-06T10:13:14;39.10;24.80
5346;DHT22;2695;49.444;11.054;2022-08-06T10:15:46;38.10;26.20
5346;DHT22;2695;49.444;11.054;2022-08-06T10:18:37;38.00;26.10
5346;DHT22;2695;49.444;11.054;2022-08-06T10:21:27;38.70;26.00
5346;DHT22;2695;49.444;11.054;2022-08-06T10:24:08;38.80;25.70
5346;DHT22;2695;49.444;11.054;2022-08-06T10:26:37;37.80;26.30
5346;DHT22;2695;49.444;11.054;2022-08-06T10:29:11;36.90;27.20
5346;DHT22;2695;49.444;11.054;2022-08-06T10:31:43;37.10;27.30
5346;DHT22;2695;49.444;11.054;2022-08-06T10:34:27;37.90;26.40
5346;DHT22;2695;49.444;11.054;2022-08-06T10:37:02;38.80;25.80
5346;DHT22;2695;49.444;11.054;2022-08-06T10:39:55;39.00;25.30
5346;DHT22;2695;49.444;11.054;2022-08-06T10:42:36;38.70;25.70
5346;DHT22;2695;49.444;11.054;2022-08-06T10:45:09;38.40;25.70
5346;DHT22;2695;49.444;11.054;2022-08-06T10:47:44;37.70;26.10
5346;DHT22;2695;49.444;11.054;2022-08-06T10:50:32;37.30;26.60
5346;DHT22;2695;49.444;11.054;2022-08-06T10:53:18;36.90;27.10
5346;DHT22;2695;49.444;11.054;2022-08-06T10:56:08;37.30;26.70
5346;DHT22;2695;49.444;11.054;2022-08-06T10:58:38;37.00;26.30
5346;DHT22;2695;49.444;11.054;2022-08-06T11:01:10;36.70;26.90
5346;DHT22;2695;49.444;11.054;2022-08-06T11:03:58;37.00;26.40
5346;DHT22;2695;49.444;11.054;2022-08-06T11:06:45;37.20;26.10
5346;DHT22;2695;49.444;11.054;2022-08-06T11:09:37;37.20;26.70
5346;DHT22;2695;49.444;11.054;2022-08-06T11:12:39;37.40;26.00
5346;DHT22;2695;49.444;11.054;2022-08-06T11:15:17;37.50;25.60
5346;DHT22;2695;49.444;11.054;2022-08-06T11:17:51;37.50;25.80
5346;DHT22;2695;49.444;11.054;2022-08-06T11:20:44;37.40;25.80
5346;DHT22;2695;49.444;11.054;2022-08-06T11:23:26;37.10;26.30
5346;DHT22;2695;49.444;11.054;2022-08-06T11:26:32;37.00;25.60
5346;DHT22;2695;49.444;11.054;2022-08-06T11:29:05;37.10;25.70
5346;DHT22;2695;49.444;11.054;2022-08-06T11:31:43;36.90;25.90
5346;DHT22;2695;49.444;11.054;2022-08-06T11:34:41;36.60;26.10
5346;DHT22;2695;49.444;11.054;2022-08-06T11:37:42;36.20;26.30
5346;DHT22;2695;49.444;11.054;2022-08-06T11:40:52;36.00;26.30
5346;DHT22;2695;49.444;11.054;2022-08-06T11:43:44;35.80;26.30
5346;DHT22;2695;49.444;11.054;2022-08-06T11:46:31;35.70;26.00
5346;DHT22;2695;49.444;11.054;2022-08-06T11:49:35;35.60;26.60
5346;DHT22;2695;49.444;11.054;2022-08-06T11:52:29;35.40;27.40
5346;DHT22;2695;49.444;11.054;2022-08-06T11:55:09;35.00;27.10
5346;DHT22;2695;49.444;11.054;2022-08-06T11:57:49;34.90;27.20
5346;DHT22;2695;49.444;11.054;2022-08-06T12:00:21;34.50;26.70
5346;DHT22;2695;49.444;11.054;2022-08-06T12:02:56;34.10;27.30
5346;DHT22;2695;49.444;11.054;2022-08-06T12:05:40;33.90;27.20
5346;DHT22;2695;49.444;11.054;2022-08-06T12:08:24;33.70;28.60
5346;DHT22;2695;49.444;11.054;2022-08-06T12:11:29;33.30;27.90
5346;DHT22;2695;49.444;11.054;2022-08-06T12:14:03;32.70;28.50
5346;DHT22;2695;49.444;11.054;2022-08-06T12:16:51;32.60;29.10
5346;DHT22;2695;49.444;11.054;2022-08-06T12:19:25;32.40;29.10
5346;DHT22;2695;49.444;11.054;2022-08-06T12:21:53;32.30;29.70
5346;DHT22;2695;49.444;11.054;2022-08-06T12:24:24;32.10;29.90
5346;DHT22;2695;49.444;11.054;2022-08-06T12:27:15;31.90;30.20
5346;DHT22;2695;49.444;11.054;2022-08-06T12:29:55;31.20;29.90
5346;DHT22;2695;49.444;11.054;2022-08-06T12:32:26;30.90;30.70
5346;DHT22;2695;49.444;11.054;2022-08-06T12:34:57;30.50;31.30
5346;DHT22;2695;49.444;11.054;2022-08-06T12:37:37;30.20;31.10
5346;DHT22;2695;49.444;11.054;2022-08-06T12:40:15;30.00;32.00
5346;DHT22;2695;49.444;11.054;2022-08-06T12:43:11;29.70;31.80
5346;DHT22;2695;49.444;11.054;2022-08-06T12:45:42;29.40;32.00
5346;DHT22;2695;49.444;11.054;2022-08-06T12:48:31;29.30;32.50
5346;DHT22;2695;49.444;11.054;2022-08-06T12:51:04;29.20;33.60
5346;DHT22;2695;49.444;11.054;2022-08-06T12:53:41;29.30;33.40
5346;DHT22;2695;49.444;11.054;2022-08-06T12:56:14;29.30;33.80
5346;DHT22;2695;49.444;11.054;2022-08-06T12:58:59;29.00;33.80
5346;DHT22;2695;49.444;11.054;2022-08-06T13:01:30;28.80;34.50
5346;DHT22;2695;49.444;11.054;2022-08-06T13:04:20;28.70;34.00
5346;DHT22;2695;49.444;11.054;2022-08-06T13:06:58;28.60;33.50
5346;DHT22;2695;49.444;11.054;2022-08-06T13:09:28;28.50;34.20
5346;DHT22;2695;49.444;11.054;2022-08-06T13:12:14;28.40;34.00
5346;DHT22;2695;49.444;11.054;2022-08-06T13:14:57;28.40;34.20
5346;DHT22;2695;49.444;11.054;2022-08-06T13:17:38;28.50;34.20
5346;DHT22;2695;49.444;11.054;2022-08-06T13:20:35;28.50;33.30
5346;DHT22;2695;49.444;11.054;2022-08-06T13:23:04;28.30;32.20
5346;DHT22;2695;49.444;11.054;2022-08-06T13:25:41;28.20;33.20
5346;DHT22;2695;49.444;11.054;2022-08-06T13:28:21;28.10;33.40
5346;DHT22;2695;49.444;11.054;2022-08-06T13:30:56;28.10;32.20
5346;DHT22;2695;49.444;11.054;2022-08-06T13:33:28;28.10;33.90
5346;DHT22;2695;49.444;11.054;2022-08-06T13:36:05;28.10;33.80
5346;DHT22;2695;49.444;11.054;2022-08-06T13:38:38;28.30;33.60
5346;DHT22;2695;49.444;11.054;2022-08-06T13:41:08;28.30;32.80
5346;DHT22;2695;49.444;11.054;2022-08-06T13:43:39;28.20;32.60
5346;DHT22;2695;49.444;11.054;2022-08-06T13:46:23;28.10;33.00
5346;DHT22;2695;49.444;11.054;2022-08-06T13:48:56;28.00;35.20
5346;DHT22;2695;49.444;11.054;2022-08-06T13:51:28;28.10;34.80
5346;DHT22;2695;49.444;11.054;2022-08-06T13:54:02;28.10;34.60
5346;DHT22;2695;49.444;11.054;2022-08-06T13:56:42;28.00;33.80
5346;DHT22;2695;49.444;11.054;2022-08-06T13:59:18;27.70;34.40
5346;DHT22;2695;49.444;11.054;2022-08-06T14:01:49;27.60;33.70
5346;DHT22;2695;49.444;11.054;2022-08-06T14:04:20;27.50;35.30
5346;DHT22;2695;49.444;11.054;2022-08-06T14:06:52;27.50;35.00
5346;DHT22;2695;49.444;11.054;2022-08-06T14:09:27;27.50;35.30
5346;DHT22;2695;49.444;11.054;2022-08-06T14:12:16;27.50;35.60
5346;DHT22;2695;49.444;11.054;2022-08-06T14:14:46;27.40;35.50
5346;DHT22;2695;49.444;11.054;2022-08-06T14:17:17;27.50;35.60
5346;DHT22;2695;49.444;11.054;2022-08-06T14:19:48;27.50;34.40
5346;DHT22;2695;49.444;11.054;2022-08-06T14:22:36;27.20;34.30
5346;DHT22;2695;49.444;11.054;2022-08-06T14:25:08;27.00;35.20
5346;DHT22;2695;49.444;11.054;2022-08-06T14:27:39;27.00;37.00
5346;DHT22;2695;49.444;11.054;2022-08-06T14:30:11;27.00;36.20
5346;DHT22;2695;49.444;11.054;2022-08-06T14:33:00;27.00;36.50
5346;DHT22;2695;49.444;11.054;2022-08-06T14:35:37;27.10;36.40
5346;DHT22;2695;49.444;11.054;2022-08-06T14:38:17;27.00;36.30
5346;DHT22;2695;49.444;11.054;2022-08-06T14:40:45;26.80;35.70
5346;DHT22;2695;49.444;11.054;2022-08-06T14:43:35;26.70;36.40
5346;DHT22;2695;49.444;11.054;2022-08-06T14:46:27;26.50;36.80
5346;DHT22;2695;49.444;11.054;2022-08-06T14:49:00;26.50;36.70
5346;DHT22;2695;49.444;11.054;2022-08-06T14:51:38;26.50;36.50
5346;DHT22;2695;49.444;11.054;2022-08-06T14:54:27;26.50;36.00
5346;DHT22;2695;49.444;11.054;2022-08-06T14:56:59;26.60;36.10
5346;DHT22;2695;49.444;11.054;2022-08-06T14:59:48;26.60;36.50
5346;DHT22;2695;49.444;11.054;2022-08-06T15:02:19;26.60;36.20
5346;DHT22;2695;49.444;11.054;2022-08-06T15:04:53;26.50;37.10
5346;DHT22;2695;49.444;11.054;2022-08-06T15:07:22;26.40;36.70
5346;DHT22;2695;49.444;11.054;2022-08-06T15:10:08;26.50;36.10
5346;DHT22;2695;49.444;11.054;2022-08-06T15:12:55;26.50;36.50
5346;DHT22;2695;49.444;11.054;2022-08-06T15:15:29;26.40;35.80
5346;DHT22;2695;49.444;11.054;2022-08-06T15:18:13;26.30;35.30
5346;DHT22;2695;49.444;11.054;2022-08-06T15:21:04;26.30;35.30
5346;DHT22;2695;49.444;11.054;2022-08-06T15:23:41;26.30;35.80
5346;DHT22;2695;49.444;11.054;2022-08-06T15:26:21;26.30;35.80
5346;DHT22;2695;49.444;11.054;2022-08-06T15:29:09;26.30;35.90
5346;DHT22;2695;49.444;11.054;2022-08-06T15:31:42;26.30;36.50
5346;DHT22;2695;49.444;11.054;2022-08-06T15:34:10;26.30;36.70
5346;DHT22;2695;49.444;11.054;2022-08-06T15:36:46;26.40;36.70
5346;DHT22;2695;49.444;11.054;2022-08-06T15:39:28;26.30;36.10
5346;DHT22;2695;49.444;11.054;2022-08-06T15:42:16;26.40;37.10
5346;DHT22;2695;49.444;11.054;2022-08-06T15:44:44;26.50;36.20
5346;DHT22;2695;49.444;11.054;2022-08-06T15:47:13;26.50;36.00
5346;DHT22;2695;49.444;11.054;2022-08-06T15:49:42;26.50;36.20
5346;DHT22;2695;49.444;11.054;2022-08-06T15:52:31;26.60;35.60
5346;DHT22;2695;49.444;11.054;2022-08-06T15:55:04;26.60;35.40
5346;DHT22;2695;49.444;11.054;2022-08-06T15:57:43;26.60;34.20
5346;DHT22;2695;49.444;11.054;2022-08-06T16:00:31;26.50;34.20
5346;DHT22;2695;49.444;11.054;2022-08-06T16:03:02;26.40;34.90
5346;DHT22;2695;49.444;11.054;2022-08-06T16:05:34;26.30;35.20
5346;DHT22;2695;49.444;11.054;2022-08-06T16:08:24;26.30;34.50
5346;DHT22;2695;49.444;11.054;2022-08-06T16:11:10;26.20;33.80
5346;DHT22;2695;49.444;11.054;2022-08-06T16:13:39;26.30;33.50
5346;DHT22;2695;49.444;11.054;2022-08-06T16:16:20;26.20;32.90
5346;DHT22;2695;49.444;11.054;2022-08-06T16:18:59;26.20;34.30
5346;DHT22;2695;49.444;11.054;2022-08-06T16:21:28;26.20;32.80
5346;DHT22;2695;49.444;11.054;2022-08-06T16:24:01;26.20;34.90
5346;DHT22;2695;49.444;11.054;2022-08-06T16:26:31;26.20;33.60
5346;DHT22;2695;49.444;11.054;2022-08-06T16:29:16;26.10;32.50
5346;DHT22;2695;49.444;11.054;2022-08-06T16:31:46;26.00;32.50
5346;DHT22;2695;49.444;11.054;2022-08-06T16:34:20;26.30;32.50
5346;DHT22;2695;49.444;11.054;2022-08-06T16:36:56;26.00;33.50
5346;DHT22;2695;49.444;11.054;2022-08-06T16:39:27;26.30;32.80
5346;DHT22;2695;49.444;11.054;2022-08-06T16:42:03;25.90;33.10
5346;DHT22;2695;49.444;11.054;2022-08-06T16:44:31;25.90;33.10
5346;DHT22;2695;49.444;11.054;2022-08-06T16:47:19;25.90;33.40
5346;DHT22;2695;49.444;11.054;2022-08-06T16:49:48;25.80;33.00
5346;DHT22;2695;49.444;11.054;2022-08-06T16:52:36;25.80;33.30
5346;DHT22;2695;49.444;11.054;2022-08-06T16:55:12;25.70;34.30
5346;DHT22;2695;49.444;11.054;2022-08-06T16:57:40;25.80;34.30
5346;DHT22;2695;49.444;11.054;2022-08-06T17:00:23;25.80;34.40